首页
METAR-TAF:

METAR-TAF

机场 :

Ellsworth Air Force Base

拉皮德城 / Ellsworth, 南达科他州, 美国

纬度: 44-09N, 经度: 103-06W, 海拔: 999米

当前天气观测

该预报发布于22分钟前的16:55 UTC
风速18节,风向,有时为23节阵风
温度 32°C
湿度 26%
气压 1009 hPa
能見度: 16.1公里
少量云层高于20000英尺

METAR: KRCA 241655Z AUTO 36018G23KT 10SM FEW200 32/10 A2980 RMK AO2 SLP059 T03180099 TSNO $

时间: 11:17 (17:17 UTC)

预报

该预报发布于6小时和17分钟前的11:00 UTC
预报有效从24日的 11点(UTC)到 25日的 17点(UTC)
风速12节,风向西
能见度10公里或以上
天空无云
成为
从 24日的 14点(UTC)到 24日的 15点(UTC)
风速15节,风向西北,有时为30节阵风
能见度10公里或以上
天空无云
成为
从 24日的 17点(UTC)到 24日的 18点(UTC)
风速12节,风向北转西北,有时为20节阵风
能见度10公里或以上
天空无云
成为
从 24日的 20点(UTC)到 24日的 21点(UTC)
风速5节,风向
能见度10公里或以上
天空无云
成为
从 25日的 01点(UTC)到 25日的 02点(UTC)
风速6节,风向多变
能见度10公里或以上
少量云层高于7000英尺
散云层高于12000英尺
小阵雨
成为
从 25日的 04点(UTC)到 25日的 05点(UTC)
风速6节,风向多变
能见度10公里或以上
少量云层高于10000英尺

TAF: KRCA 241100Z 2411/2517 28012KT 9999 SKC 530054 QNH2964INS BECMG 2414/2415 32015G30KT 9999 SKC 530054 QNH2979INS BECMG 2417/2418 34012G20KT 9999 SKC QNH2982INS BECMG 2420/2421 01005KT 9999 SKC QNH2980INS BECMG 2501/2502 VRB06KT 9999 -SHRA FEW070 SCT120 QNH2980INS BECMG 2504/2505 VRB06KT 9999 NSW FEW100 QNH2982INS TX36/2420Z TN15/2506Z

超过4000个机场的气象观测和天气预报(METAR&TAF报告)。

可查询的气象台以黄色和红色小点在地图上表示。

将鼠标移到小点上方,可查看气象台名称。

然后点击查看天气观测和预报。

如需切换地图:点击带黑十字的绿色按钮放大地图;点击带横线的绿色按钮缩小地图;或者点击绿色箭头查看邻近地区的地图。


METAR-TAF: